sensor_id;sensor_type;location;lat;lon;timestamp;temperature;humidity
51841;DHT22;37888;53.246;6.658;2022-07-06T00:01:36;14.20;99.90
51841;DHT22;37888;53.246;6.658;2022-07-06T00:04:03;14.10;99.90
51841;DHT22;37888;53.246;6.658;2022-07-06T00:06:29;14.10;99.90
51841;DHT22;37888;53.246;6.658;2022-07-06T00:08:56;14.20;99.90
51841;DHT22;37888;53.246;6.658;2022-07-06T00:11:23;14.20;99.90
51841;DHT22;37888;53.246;6.658;2022-07-06T00:13:50;14.10;99.90
51841;DHT22;37888;53.246;6.658;2022-07-06T00:16:16;14.20;99.90
51841;DHT22;37888;53.246;6.658;2022-07-06T00:18:43;14.20;99.90
51841;DHT22;37888;53.246;6.658;2022-07-06T00:21:09;14.20;99.90
51841;DHT22;37888;53.246;6.658;2022-07-06T00:23:35;14.20;99.90
51841;DHT22;37888;53.246;6.658;2022-07-06T00:26:02;14.20;99.90
51841;DHT22;37888;53.246;6.658;2022-07-06T00:28:28;14.20;99.90
51841;DHT22;37888;53.246;6.658;2022-07-06T00:30:54;14.20;99.90
51841;DHT22;37888;53.246;6.658;2022-07-06T00:33:20;14.20;99.90
51841;DHT22;37888;53.246;6.658;2022-07-06T00:35:47;14.20;99.90
51841;DHT22;37888;53.246;6.658;2022-07-06T00:38:15;14.30;99.90
51841;DHT22;37888;53.246;6.658;2022-07-06T00:40:41;14.20;99.90
51841;DHT22;37888;53.246;6.658;2022-07-06T00:43:07;14.30;99.90
51841;DHT22;37888;53.246;6.658;2022-07-06T00:45:34;14.30;99.90
51841;DHT22;37888;53.246;6.658;2022-07-06T00:48:00;14.30;99.90
51841;DHT22;37888;53.246;6.658;2022-07-06T00:50:26;14.30;99.90
51841;DHT22;37888;53.246;6.658;2022-07-06T00:53:03;14.30;99.90
51841;DHT22;37888;53.246;6.658;2022-07-06T00:55:32;14.30;99.90
51841;DHT22;37888;53.246;6.658;2022-07-06T00:58:04;14.30;99.90
51841;DHT22;37888;53.246;6.658;2022-07-06T01:00:30;14.30;99.90
51841;DHT22;37888;53.246;6.658;2022-07-06T01:02:57;14.30;99.90
51841;DHT22;37888;53.246;6.658;2022-07-06T01:05:23;14.30;99.90
51841;DHT22;37888;53.246;6.658;2022-07-06T01:07:51;14.30;99.90
51841;DHT22;37888;53.246;6.658;2022-07-06T01:10:20;14.30;99.90
51841;DHT22;37888;53.246;6.658;2022-07-06T01:12:47;14.30;99.90
51841;DHT22;37888;53.246;6.658;2022-07-06T01:15:16;14.30;99.90
51841;DHT22;37888;53.246;6.658;2022-07-06T01:17:43;14.30;99.90
51841;DHT22;37888;53.246;6.658;2022-07-06T01:20:14;14.30;99.90
51841;DHT22;37888;53.246;6.658;2022-07-06T01:25:46;14.20;99.90
51841;DHT22;37888;53.246;6.658;2022-07-06T01:28:13;14.20;99.90
51841;DHT22;37888;53.246;6.658;2022-07-06T01:30:40;14.20;99.90
51841;DHT22;37888;53.246;6.658;2022-07-06T01:33:06;14.10;99.90
51841;DHT22;37888;53.246;6.658;2022-07-06T01:35:34;14.10;99.90
51841;DHT22;37888;53.246;6.658;2022-07-06T01:38:03;14.10;99.90
51841;DHT22;37888;53.246;6.658;2022-07-06T01:40:29;14.00;99.90
51841;DHT22;37888;53.246;6.658;2022-07-06T01:43:15;14.00;99.90
51841;DHT22;37888;53.246;6.658;2022-07-06T01:46:02;14.00;99.90
51841;DHT22;37888;53.246;6.658;2022-07-06T01:48:29;13.90;99.90
51841;DHT22;37888;53.246;6.658;2022-07-06T01:51:14;13.90;99.90
51841;DHT22;37888;53.246;6.658;2022-07-06T01:53:40;13.90;99.90
51841;DHT22;37888;53.246;6.658;2022-07-06T01:56:07;13.90;99.90
51841;DHT22;37888;53.246;6.658;2022-07-06T02:01:36;13.90;99.90
51841;DHT22;37888;53.246;6.658;2022-07-06T02:04:02;13.90;99.90
51841;DHT22;37888;53.246;6.658;2022-07-06T02:09:03;13.80;99.90
51841;DHT22;37888;53.246;6.658;2022-07-06T02:11:29;13.80;99.90
51841;DHT22;37888;53.246;6.658;2022-07-06T02:13:55;13.80;99.90
51841;DHT22;37888;53.246;6.658;2022-07-06T02:16:21;13.80;99.90
51841;DHT22;37888;53.246;6.658;2022-07-06T02:18:47;13.90;99.90
51841;DHT22;37888;53.246;6.658;2022-07-06T02:21:13;13.80;99.90
51841;DHT22;37888;53.246;6.658;2022-07-06T02:23:39;13.80;99.90
51841;DHT22;37888;53.246;6.658;2022-07-06T02:26:05;13.80;99.90
51841;DHT22;37888;53.246;6.658;2022-07-06T02:28:31;13.80;99.90
51841;DHT22;37888;53.246;6.658;2022-07-06T02:30:57;13.80;99.90
51841;DHT22;37888;53.246;6.658;2022-07-06T02:33:24;13.80;99.90
51841;DHT22;37888;53.246;6.658;2022-07-06T02:35:50;13.80;99.90
51841;DHT22;37888;53.246;6.658;2022-07-06T02:38:17;13.70;99.90
51841;DHT22;37888;53.246;6.658;2022-07-06T02:40:43;13.70;99.90
51841;DHT22;37888;53.246;6.658;2022-07-06T02:43:09;13.70;99.90
51841;DHT22;37888;53.246;6.658;2022-07-06T02:45:35;13.70;99.90
51841;DHT22;37888;53.246;6.658;2022-07-06T02:48:01;13.60;99.90
51841;DHT22;37888;53.246;6.658;2022-07-06T02:50:27;13.60;99.90
51841;DHT22;37888;53.246;6.658;2022-07-06T02:52:53;13.60;99.90
51841;DHT22;37888;53.246;6.658;2022-07-06T02:55:20;13.60;99.90
51841;DHT22;37888;53.246;6.658;2022-07-06T02:57:46;13.60;99.90
51841;DHT22;37888;53.246;6.658;2022-07-06T03:00:13;13.50;99.90
51841;DHT22;37888;53.246;6.658;2022-07-06T03:02:39;13.50;99.90
51841;DHT22;37888;53.246;6.658;2022-07-06T03:05:05;13.50;99.90
51841;DHT22;37888;53.246;6.658;2022-07-06T03:07:31;13.40;99.90
51841;DHT22;37888;53.246;6.658;2022-07-06T03:09:57;13.40;99.90
51841;DHT22;37888;53.246;6.658;2022-07-06T03:12:23;13.40;99.90
51841;DHT22;37888;53.246;6.658;2022-07-06T03:14:49;13.40;99.90
51841;DHT22;37888;53.246;6.658;2022-07-06T03:17:15;13.30;99.90
51841;DHT22;37888;53.246;6.658;2022-07-06T03:19:41;13.30;99.90
51841;DHT22;37888;53.246;6.658;2022-07-06T03:22:07;13.30;99.90
51841;DHT22;37888;53.246;6.658;2022-07-06T03:24:33;13.30;99.90
51841;DHT22;37888;53.246;6.658;2022-07-06T03:26:59;13.30;99.90
51841;DHT22;37888;53.246;6.658;2022-07-06T03:29:25;13.30;99.90
51841;DHT22;37888;53.246;6.658;2022-07-06T03:31:51;13.30;99.90
51841;DHT22;37888;53.246;6.658;2022-07-06T03:34:17;13.20;99.90
51841;DHT22;37888;53.246;6.658;2022-07-06T03:36:43;13.30;99.90
51841;DHT22;37888;53.246;6.658;2022-07-06T03:39:08;13.30;99.90
51841;DHT22;37888;53.246;6.658;2022-07-06T03:41:34;13.30;99.90
51841;DHT22;37888;53.246;6.658;2022-07-06T03:44:00;13.30;99.90
51841;DHT22;37888;53.246;6.658;2022-07-06T03:46:27;13.30;99.90
51841;DHT22;37888;53.246;6.658;2022-07-06T03:48:54;13.20;99.90
51841;DHT22;37888;53.246;6.658;2022-07-06T03:51:19;13.20;99.90
51841;DHT22;37888;53.246;6.658;2022-07-06T03:53:46;13.20;99.90
51841;DHT22;37888;53.246;6.658;2022-07-06T03:56:12;13.20;99.90
51841;DHT22;37888;53.246;6.658;2022-07-06T03:58:59;13.20;99.90
51841;DHT22;37888;53.246;6.658;2022-07-06T04:01:26;13.20;99.90
51841;DHT22;37888;53.246;6.658;2022-07-06T04:04:11;13.20;99.90
51841;DHT22;37888;53.246;6.658;2022-07-06T04:06:37;13.20;99.90
51841;DHT22;37888;53.246;6.658;2022-07-06T04:09:04;13.20;99.90
51841;DHT22;37888;53.246;6.658;2022-07-06T04:11:32;13.20;99.90
51841;DHT22;37888;53.246;6.658;2022-07-06T04:13:59;13.20;99.90
51841;DHT22;37888;53.246;6.658;2022-07-06T04:16:25;13.20;99.90
51841;DHT22;37888;53.246;6.658;2022-07-06T04:18:55;13.20;99.90
51841;DHT22;37888;53.246;6.658;2022-07-06T04:21:20;13.20;99.90
51841;DHT22;37888;53.246;6.658;2022-07-06T04:23:49;13.20;99.90
51841;DHT22;37888;53.246;6.658;2022-07-06T04:26:15;13.30;99.90
51841;DHT22;37888;53.246;6.658;2022-07-06T04:28:41;13.30;99.90
51841;DHT22;37888;53.246;6.658;2022-07-06T04:31:07;13.30;99.90
51841;DHT22;37888;53.246;6.658;2022-07-06T04:33:34;13.40;99.90
51841;DHT22;37888;53.246;6.658;2022-07-06T04:36:00;13.40;99.90
51841;DHT22;37888;53.246;6.658;2022-07-06T04:38:25;13.40;99.90
51841;DHT22;37888;53.246;6.658;2022-07-06T04:40:51;13.40;99.90
51841;DHT22;37888;53.246;6.658;2022-07-06T04:43:17;13.30;99.90
51841;DHT22;37888;53.246;6.658;2022-07-06T04:45:43;13.30;99.90
51841;DHT22;37888;53.246;6.658;2022-07-06T04:48:09;13.20;99.90
51841;DHT22;37888;53.246;6.658;2022-07-06T04:50:37;13.20;99.90
51841;DHT22;37888;53.246;6.658;2022-07-06T04:53:03;13.10;99.90
51841;DHT22;37888;53.246;6.658;2022-07-06T04:55:29;13.10;99.90
51841;DHT22;37888;53.246;6.658;2022-07-06T04:57:55;13.00;99.90
51841;DHT22;37888;53.246;6.658;2022-07-06T05:00:21;13.00;99.90
51841;DHT22;37888;53.246;6.658;2022-07-06T05:02:47;13.00;99.90
51841;DHT22;37888;53.246;6.658;2022-07-06T05:05:13;13.10;99.90
51841;DHT22;37888;53.246;6.658;2022-07-06T05:07:39;13.10;99.90
51841;DHT22;37888;53.246;6.658;2022-07-06T05:10:09;13.10;99.90
51841;DHT22;37888;53.246;6.658;2022-07-06T05:12:35;13.20;99.90
51841;DHT22;37888;53.246;6.658;2022-07-06T05:15:02;13.30;99.90
51841;DHT22;37888;53.246;6.658;2022-07-06T05:17:28;13.30;99.90
51841;DHT22;37888;53.246;6.658;2022-07-06T05:19:54;13.40;99.90
51841;DHT22;37888;53.246;6.658;2022-07-06T05:22:20;13.40;99.90
51841;DHT22;37888;53.246;6.658;2022-07-06T05:24:46;13.50;99.90
51841;DHT22;37888;53.246;6.658;2022-07-06T05:27:12;13.60;99.90
51841;DHT22;37888;53.246;6.658;2022-07-06T05:29:38;13.60;99.90
51841;DHT22;37888;53.246;6.658;2022-07-06T05:32:04;13.80;99.90
51841;DHT22;37888;53.246;6.658;2022-07-06T05:34:30;13.80;99.90
51841;DHT22;37888;53.246;6.658;2022-07-06T05:36:56;13.90;99.90
51841;DHT22;37888;53.246;6.658;2022-07-06T05:39:22;13.90;99.90
51841;DHT22;37888;53.246;6.658;2022-07-06T05:41:49;14.10;99.90
51841;DHT22;37888;53.246;6.658;2022-07-06T05:44:15;14.10;99.90
51841;DHT22;37888;53.246;6.658;2022-07-06T05:46:41;14.20;99.90
51841;DHT22;37888;53.246;6.658;2022-07-06T05:49:07;14.20;99.90
51841;DHT22;37888;53.246;6.658;2022-07-06T05:51:51;14.30;99.90
51841;DHT22;37888;53.246;6.658;2022-07-06T05:54:18;14.40;99.90
51841;DHT22;37888;53.246;6.658;2022-07-06T05:56:43;14.40;99.90
51841;DHT22;37888;53.246;6.658;2022-07-06T05:59:09;14.50;99.90
51841;DHT22;37888;53.246;6.658;2022-07-06T06:01:35;14.50;99.90
51841;DHT22;37888;53.246;6.658;2022-07-06T06:04:01;14.60;99.90
51841;DHT22;37888;53.246;6.658;2022-07-06T06:06:27;14.70;99.90
51841;DHT22;37888;53.246;6.658;2022-07-06T06:08:53;14.90;99.90
51841;DHT22;37888;53.246;6.658;2022-07-06T06:11:19;15.10;99.90
51841;DHT22;37888;53.246;6.658;2022-07-06T06:13:45;15.30;99.90
51841;DHT22;37888;53.246;6.658;2022-07-06T06:16:11;15.50;99.90
51841;DHT22;37888;53.246;6.658;2022-07-06T06:18:37;15.40;99.90
51841;DHT22;37888;53.246;6.658;2022-07-06T06:21:03;15.30;99.90
51841;DHT22;37888;53.246;6.658;2022-07-06T06:23:29;15.20;99.90
51841;DHT22;37888;53.246;6.658;2022-07-06T06:25:55;15.20;99.90
51841;DHT22;37888;53.246;6.658;2022-07-06T06:28:21;15.10;99.90
51841;DHT22;37888;53.246;6.658;2022-07-06T06:30:47;15.10;99.90
51841;DHT22;37888;53.246;6.658;2022-07-06T06:33:15;15.00;99.90
51841;DHT22;37888;53.246;6.658;2022-07-06T06:35:44;15.00;99.90
51841;DHT22;37888;53.246;6.658;2022-07-06T06:38:10;15.00;99.90
51841;DHT22;37888;53.246;6.658;2022-07-06T06:40:36;15.00;99.90
51841;DHT22;37888;53.246;6.658;2022-07-06T06:43:02;15.00;99.90
51841;DHT22;37888;53.246;6.658;2022-07-06T06:45:28;15.00;99.90
51841;DHT22;37888;53.246;6.658;2022-07-06T06:47:54;14.90;99.90
51841;DHT22;37888;53.246;6.658;2022-07-06T06:50:23;15.00;99.90
51841;DHT22;37888;53.246;6.658;2022-07-06T06:52:50;15.00;99.90
51841;DHT22;37888;53.246;6.658;2022-07-06T06:55:16;15.20;99.90
51841;DHT22;37888;53.246;6.658;2022-07-06T06:57:43;15.40;99.90
51841;DHT22;37888;53.246;6.658;2022-07-06T07:00:09;15.70;99.90
51841;DHT22;37888;53.246;6.658;2022-07-06T07:02:36;16.50;99.90
51841;DHT22;37888;53.246;6.658;2022-07-06T07:05:02;17.50;99.90
51841;DHT22;37888;53.246;6.658;2022-07-06T07:07:28;18.40;99.90
51841;DHT22;37888;53.246;6.658;2022-07-06T07:09:54;19.20;99.90
51841;DHT22;37888;53.246;6.658;2022-07-06T07:12:20;20.00;99.90
51841;DHT22;37888;53.246;6.658;2022-07-06T07:14:46;19.60;99.90
51841;DHT22;37888;53.246;6.658;2022-07-06T07:17:13;18.70;99.90
51841;DHT22;37888;53.246;6.658;2022-07-06T07:19:39;18.00;99.90
51841;DHT22;37888;53.246;6.658;2022-07-06T07:22:05;17.40;99.90
51841;DHT22;37888;53.246;6.658;2022-07-06T07:24:31;16.90;99.90
51841;DHT22;37888;53.246;6.658;2022-07-06T07:26:57;16.60;99.90
51841;DHT22;37888;53.246;6.658;2022-07-06T07:29:23;16.50;99.90
51841;DHT22;37888;53.246;6.658;2022-07-06T07:31:49;17.00;99.90
51841;DHT22;37888;53.246;6.658;2022-07-06T07:34:15;18.00;99.90
51841;DHT22;37888;53.246;6.658;2022-07-06T07:36:43;19.10;99.90
51841;DHT22;37888;53.246;6.658;2022-07-06T07:39:09;19.90;99.90
51841;DHT22;37888;53.246;6.658;2022-07-06T07:41:53;20.20;99.90
51841;DHT22;37888;53.246;6.658;2022-07-06T07:44:19;20.30;99.90
51841;DHT22;37888;53.246;6.658;2022-07-06T07:46:46;20.00;99.90
51841;DHT22;37888;53.246;6.658;2022-07-06T07:49:12;19.50;99.90
51841;DHT22;37888;53.246;6.658;2022-07-06T07:51:38;19.40;99.90
51841;DHT22;37888;53.246;6.658;2022-07-06T07:54:14;19.50;99.90
51841;DHT22;37888;53.246;6.658;2022-07-06T07:57:03;19.40;99.90
51841;DHT22;37888;53.246;6.658;2022-07-06T07:59:39;19.90;99.90
51841;DHT22;37888;53.246;6.658;2022-07-06T08:02:11;19.40;99.90
51841;DHT22;37888;53.246;6.658;2022-07-06T08:04:39;18.80;99.90
51841;DHT22;37888;53.246;6.658;2022-07-06T08:07:06;18.30;99.90
51841;DHT22;37888;53.246;6.658;2022-07-06T08:09:33;18.40;99.90
51841;DHT22;37888;53.246;6.658;2022-07-06T08:12:08;18.90;99.90
51841;DHT22;37888;53.246;6.658;2022-07-06T08:14:37;19.10;99.90
51841;DHT22;37888;53.246;6.658;2022-07-06T08:17:37;18.90;99.90
51841;DHT22;37888;53.246;6.658;2022-07-06T08:20:06;18.80;99.90
51841;DHT22;37888;53.246;6.658;2022-07-06T08:22:34;18.90;99.90
51841;DHT22;37888;53.246;6.658;2022-07-06T08:25:14;18.80;99.90
51841;DHT22;37888;53.246;6.658;2022-07-06T08:27:43;18.70;99.90
51841;DHT22;37888;53.246;6.658;2022-07-06T08:30:23;18.60;99.90
51841;DHT22;37888;53.246;6.658;2022-07-06T08:32:57;18.70;99.90
51841;DHT22;37888;53.246;6.658;2022-07-06T08:35:39;18.50;99.90
51841;DHT22;37888;53.246;6.658;2022-07-06T08:38:27;18.40;99.90
51841;DHT22;37888;53.246;6.658;2022-07-06T08:41:02;18.40;99.90
51841;DHT22;37888;53.246;6.658;2022-07-06T08:43:39;18.50;99.90
51841;DHT22;37888;53.246;6.658;2022-07-06T08:46:43;18.80;99.90
51841;DHT22;37888;53.246;6.658;2022-07-06T08:49:56;19.00;99.90
51841;DHT22;37888;53.246;6.658;2022-07-06T08:52:31;19.40;99.90
51841;DHT22;37888;53.246;6.658;2022-07-06T08:54:58;19.50;99.90
51841;DHT22;37888;53.246;6.658;2022-07-06T08:57:25;19.20;99.90
51841;DHT22;37888;53.246;6.658;2022-07-06T08:59:57;19.30;99.90
51841;DHT22;37888;53.246;6.658;2022-07-06T09:02:48;19.30;99.90
51841;DHT22;37888;53.246;6.658;2022-07-06T09:06:02;19.30;99.90
51841;DHT22;37888;53.246;6.658;2022-07-06T09:08:59;19.30;99.90
51841;DHT22;37888;53.246;6.658;2022-07-06T09:11:33;19.40;99.90
51841;DHT22;37888;53.246;6.658;2022-07-06T09:14:29;19.40;99.90
51841;DHT22;37888;53.246;6.658;2022-07-06T09:17:11;19.40;99.90
51841;DHT22;37888;53.246;6.658;2022-07-06T09:19:45;19.50;99.90
51841;DHT22;37888;53.246;6.658;2022-07-06T09:22:36;19.50;99.90
51841;DHT22;37888;53.246;6.658;2022-07-06T09:25:26;19.50;99.90
51841;DHT22;37888;53.246;6.658;2022-07-06T09:28:02;19.50;99.90
51841;DHT22;37888;53.246;6.658;2022-07-06T09:30:36;19.30;99.90
51841;DHT22;37888;53.246;6.658;2022-07-06T09:33:09;19.00;99.90
51841;DHT22;37888;53.246;6.658;2022-07-06T09:35:51;18.80;99.90
51841;DHT22;37888;53.246;6.658;2022-07-06T09:38:26;18.50;99.90
51841;DHT22;37888;53.246;6.658;2022-07-06T09:40:58;18.30;99.90
51841;DHT22;37888;53.246;6.658;2022-07-06T09:43:45;18.30;99.90
51841;DHT22;37888;53.246;6.658;2022-07-06T09:46:21;18.60;99.90
51841;DHT22;37888;53.246;6.658;2022-07-06T09:48:47;19.00;99.90
51841;DHT22;37888;53.246;6.658;2022-07-06T09:51:45;19.10;99.90
51841;DHT22;37888;53.246;6.658;2022-07-06T09:54:20;19.00;99.90
51841;DHT22;37888;53.246;6.658;2022-07-06T09:56:48;18.90;99.90
51841;DHT22;37888;53.246;6.658;2022-07-06T09:59:19;18.70;99.90
51841;DHT22;37888;53.246;6.658;2022-07-06T10:02:30;18.70;99.90
51841;DHT22;37888;53.246;6.658;2022-07-06T10:05:21;18.80;99.90
51841;DHT22;37888;53.246;6.658;2022-07-06T10:07:57;18.90;99.90
51841;DHT22;37888;53.246;6.658;2022-07-06T10:10:32;18.90;99.90
51841;DHT22;37888;53.246;6.658;2022-07-06T10:12:59;18.80;99.90
51841;DHT22;37888;53.246;6.658;2022-07-06T10:15:36;18.80;99.90
51841;DHT22;37888;53.246;6.658;2022-07-06T10:21:04;18.60;99.90
51841;DHT22;37888;53.246;6.658;2022-07-06T10:23:31;18.70;99.90
51841;DHT22;37888;53.246;6.658;2022-07-06T10:26:02;18.60;99.90
51841;DHT22;37888;53.246;6.658;2022-07-06T10:29:24;18.80;99.90
51841;DHT22;37888;53.246;6.658;2022-07-06T10:38:37;19.80;99.90
51841;DHT22;37888;53.246;6.658;2022-07-06T10:44:29;20.40;99.90
51841;DHT22;37888;53.246;6.658;2022-07-06T10:47:09;21.10;99.90
51841;DHT22;37888;53.246;6.658;2022-07-06T10:49:58;21.10;99.90
51841;DHT22;37888;53.246;6.658;2022-07-06T10:53:09;21.20;99.90
51841;DHT22;37888;53.246;6.658;2022-07-06T10:56:00;20.90;99.90
51841;DHT22;37888;53.246;6.658;2022-07-06T10:58:50;20.80;99.90
51841;DHT22;37888;53.246;6.658;2022-07-06T11:01:28;20.60;99.90
51841;DHT22;37888;53.246;6.658;2022-07-06T11:04:36;20.60;99.90
51841;DHT22;37888;53.246;6.658;2022-07-06T11:07:22;20.40;99.90
51841;DHT22;37888;53.246;6.658;2022-07-06T11:10:14;20.00;99.90
51841;DHT22;37888;53.246;6.658;2022-07-06T11:12:46;19.80;99.90
51841;DHT22;37888;53.246;6.658;2022-07-06T11:15:12;19.70;99.90
51841;DHT22;37888;53.246;6.658;2022-07-06T11:18:10;19.40;99.90
51841;DHT22;37888;53.246;6.658;2022-07-06T11:23:49;20.10;99.90
51841;DHT22;37888;53.246;6.658;2022-07-06T11:27:16;20.30;99.90
51841;DHT22;37888;53.246;6.658;2022-07-06T11:30:03;20.60;99.90
51841;DHT22;37888;53.246;6.658;2022-07-06T11:32:43;20.50;99.90
51841;DHT22;37888;53.246;6.658;2022-07-06T11:35:20;20.40;99.90
51841;DHT22;37888;53.246;6.658;2022-07-06T11:37:49;20.20;99.90
51841;DHT22;37888;53.246;6.658;2022-07-06T11:40:18;20.10;99.50
51841;DHT22;37888;53.246;6.658;2022-07-06T11:43:07;20.20;99.90
51841;DHT22;37888;53.246;6.658;2022-07-06T11:45:36;20.60;99.90
51841;DHT22;37888;53.246;6.658;2022-07-06T11:48:32;20.90;99.90
51841;DHT22;37888;53.246;6.658;2022-07-06T11:51:19;21.30;99.90
51841;DHT22;37888;53.246;6.658;2022-07-06T11:56:38;21.50;94.80
51841;DHT22;37888;53.246;6.658;2022-07-06T11:59:41;21.40;96.90
51841;DHT22;37888;53.246;6.658;2022-07-06T12:02:33;21.20;94.60
51841;DHT22;37888;53.246;6.658;2022-07-06T12:05:35;20.80;95.80
51841;DHT22;37888;53.246;6.658;2022-07-06T12:08:28;20.60;95.30
51841;DHT22;37888;53.246;6.658;2022-07-06T12:11:09;20.40;95.60
51841;DHT22;37888;53.246;6.658;2022-07-06T12:13:47;20.30;96.70
51841;DHT22;37888;53.246;6.658;2022-07-06T12:16:19;20.30;97.20
51841;DHT22;37888;53.246;6.658;2022-07-06T12:19:15;20.20;97.50
51841;DHT22;37888;53.246;6.658;2022-07-06T12:21:51;20.00;95.90
51841;DHT22;37888;53.246;6.658;2022-07-06T12:24:35;19.90;97.10
51841;DHT22;37888;53.246;6.658;2022-07-06T12:27:33;20.00;98.20
51841;DHT22;37888;53.246;6.658;2022-07-06T12:30:27;19.90;98.40
51841;DHT22;37888;53.246;6.658;2022-07-06T12:33:26;19.90;98.40
51841;DHT22;37888;53.246;6.658;2022-07-06T12:35:54;20.00;98.70
51841;DHT22;37888;53.246;6.658;2022-07-06T12:38:30;20.00;99.80
51841;DHT22;37888;53.246;6.658;2022-07-06T12:41:03;19.80;99.70
51841;DHT22;37888;53.246;6.658;2022-07-06T12:43:44;20.30;99.30
51841;DHT22;37888;53.246;6.658;2022-07-06T12:46:59;20.30;98.20
51841;DHT22;37888;53.246;6.658;2022-07-06T12:49:48;20.30;98.50
51841;DHT22;37888;53.246;6.658;2022-07-06T12:52:43;20.30;98.90
51841;DHT22;37888;53.246;6.658;2022-07-06T12:55:34;20.30;99.20
51841;DHT22;37888;53.246;6.658;2022-07-06T12:58:00;20.30;99.90
51841;DHT22;37888;53.246;6.658;2022-07-06T13:00:28;20.20;99.50
51841;DHT22;37888;53.246;6.658;2022-07-06T13:06:36;19.90;97.20
51841;DHT22;37888;53.246;6.658;2022-07-06T13:09:07;19.60;98.10
51841;DHT22;37888;53.246;6.658;2022-07-06T13:11:51;19.50;99.10
51841;DHT22;37888;53.246;6.658;2022-07-06T13:14:18;19.40;98.80
51841;DHT22;37888;53.246;6.658;2022-07-06T13:16:48;19.40;99.70
51841;DHT22;37888;53.246;6.658;2022-07-06T13:19:21;19.40;99.90
51841;DHT22;37888;53.246;6.658;2022-07-06T13:21:52;19.50;99.90
51841;DHT22;37888;53.246;6.658;2022-07-06T13:24:44;19.60;99.90
51841;DHT22;37888;53.246;6.658;2022-07-06T13:27:29;19.70;99.90
51841;DHT22;37888;53.246;6.658;2022-07-06T13:30:08;19.70;99.30
51841;DHT22;37888;53.246;6.658;2022-07-06T13:32:37;19.70;99.40
51841;DHT22;37888;53.246;6.658;2022-07-06T13:35:09;19.60;99.90
51841;DHT22;37888;53.246;6.658;2022-07-06T13:37:41;19.30;99.90
51841;DHT22;37888;53.246;6.658;2022-07-06T13:40:08;19.50;99.90
51841;DHT22;37888;53.246;6.658;2022-07-06T13:45:33;19.40;98.40
51841;DHT22;37888;53.246;6.658;2022-07-06T13:47:59;19.30;99.40
51841;DHT22;37888;53.246;6.658;2022-07-06T13:50:41;19.20;99.60
51841;DHT22;37888;53.246;6.658;2022-07-06T13:53:10;19.10;99.30
51841;DHT22;37888;53.246;6.658;2022-07-06T13:55:42;19.10;99.60
51841;DHT22;37888;53.246;6.658;2022-07-06T13:58:08;19.00;99.10
51841;DHT22;37888;53.246;6.658;2022-07-06T14:00:38;18.90;99.20
51841;DHT22;37888;53.246;6.658;2022-07-06T14:03:07;18.90;99.10
51841;DHT22;37888;53.246;6.658;2022-07-06T14:05:37;18.90;99.40
51841;DHT22;37888;53.246;6.658;2022-07-06T14:08:05;18.80;99.10
51841;DHT22;37888;53.246;6.658;2022-07-06T14:10:44;18.80;99.30
51841;DHT22;37888;53.246;6.658;2022-07-06T14:16:05;18.80;99.90
51841;DHT22;37888;53.246;6.658;2022-07-06T14:18:35;18.70;99.90
51841;DHT22;37888;53.246;6.658;2022-07-06T14:21:07;18.70;99.80
51841;DHT22;37888;53.246;6.658;2022-07-06T14:23:33;18.60;99.90
51841;DHT22;37888;53.246;6.658;2022-07-06T14:25:59;18.60;99.90
51841;DHT22;37888;53.246;6.658;2022-07-06T14:28:29;18.50;99.90
51841;DHT22;37888;53.246;6.658;2022-07-06T14:31:13;18.50;99.90
51841;DHT22;37888;53.246;6.658;2022-07-06T14:33:42;18.40;99.90
51841;DHT22;37888;53.246;6.658;2022-07-06T14:36:15;18.30;99.90
51841;DHT22;37888;53.246;6.658;2022-07-06T14:42:02;18.30;99.90
51841;DHT22;37888;53.246;6.658;2022-07-06T14:44:41;18.40;99.90
51841;DHT22;37888;53.246;6.658;2022-07-06T14:47:27;18.40;99.90
51841;DHT22;37888;53.246;6.658;2022-07-06T14:50:04;18.30;99.90
51841;DHT22;37888;53.246;6.658;2022-07-06T14:53:03;18.20;99.90
51841;DHT22;37888;53.246;6.658;2022-07-06T14:59:34;18.20;99.90
51841;DHT22;37888;53.246;6.658;2022-07-06T15:02:15;18.10;99.90
51841;DHT22;37888;53.246;6.658;2022-07-06T15:04:49;18.00;99.90
51841;DHT22;37888;53.246;6.658;2022-07-06T15:07:38;18.00;99.90
51841;DHT22;37888;53.246;6.658;2022-07-06T15:10:15;18.00;99.90
51841;DHT22;37888;53.246;6.658;2022-07-06T15:13:10;18.30;99.90
51841;DHT22;37888;53.246;6.658;2022-07-06T15:15:54;17.70;99.90
51841;DHT22;37888;53.246;6.658;2022-07-06T15:18:37;17.20;99.90
51841;DHT22;37888;53.246;6.658;2022-07-06T15:21:13;17.20;99.90
51841;DHT22;37888;53.246;6.658;2022-07-06T15:29:59;17.20;99.90
51841;DHT22;37888;53.246;6.658;2022-07-06T15:32:49;17.10;99.90
51841;DHT22;37888;53.246;6.658;2022-07-06T15:38:31;16.40;99.90
51841;DHT22;37888;53.246;6.658;2022-07-06T15:41:09;17.10;99.90
51841;DHT22;37888;53.246;6.658;2022-07-06T15:43:56;17.10;99.90
51841;DHT22;37888;53.246;6.658;2022-07-06T15:46:27;17.10;99.90
51841;DHT22;37888;53.246;6.658;2022-07-06T15:49:05;17.10;99.90
51841;DHT22;37888;53.246;6.658;2022-07-06T15:51:45;17.90;99.90
51841;DHT22;37888;53.246;6.658;2022-07-06T15:54:38;17.10;99.90
51841;DHT22;37888;53.246;6.658;2022-07-06T15:57:24;17.40;99.90
51841;DHT22;37888;53.246;6.658;2022-07-06T15:59:53;17.10;99.90
51841;DHT22;37888;53.246;6.658;2022-07-06T16:02:21;17.00;99.90
51841;DHT22;37888;53.246;6.658;2022-07-06T16:04:49;17.00;99.90
51841;DHT22;37888;53.246;6.658;2022-07-06T16:07:24;17.00;99.90
51841;DHT22;37888;53.246;6.658;2022-07-06T16:09:54;17.00;99.90
51841;DHT22;37888;53.246;6.658;2022-07-06T16:12:30;17.00;99.90
51841;DHT22;37888;53.246;6.658;2022-07-06T16:15:19;16.90;99.90
51841;DHT22;37888;53.246;6.658;2022-07-06T16:18:01;16.90;99.90
51841;DHT22;37888;53.246;6.658;2022-07-06T16:20:52;16.50;99.90
51841;DHT22;37888;53.246;6.658;2022-07-06T16:23:27;16.80;99.90
51841;DHT22;37888;53.246;6.658;2022-07-06T16:26:06;16.70;99.90
51841;DHT22;37888;53.246;6.658;2022-07-06T16:28:38;16.80;99.90
51841;DHT22;37888;53.246;6.658;2022-07-06T16:31:04;16.80;99.90
51841;DHT22;37888;53.246;6.658;2022-07-06T16:33:33;16.70;99.90
51841;DHT22;37888;53.246;6.658;2022-07-06T16:36:07;16.80;99.90
51841;DHT22;37888;53.246;6.658;2022-07-06T16:38:41;16.80;99.90
51841;DHT22;37888;53.246;6.658;2022-07-06T16:41:15;16.20;99.90
51841;DHT22;37888;53.246;6.658;2022-07-06T16:43:54;16.70;99.90
51841;DHT22;37888;53.246;6.658;2022-07-06T16:46:20;16.20;99.90
51841;DHT22;37888;53.246;6.658;2022-07-06T16:49:01;16.70;99.90
51841;DHT22;37888;53.246;6.658;2022-07-06T16:51:27;16.70;99.90
51841;DHT22;37888;53.246;6.658;2022-07-06T16:53:55;16.60;99.90
51841;DHT22;37888;53.246;6.658;2022-07-06T16:56:32;16.60;99.90
51841;DHT22;37888;53.246;6.658;2022-07-06T16:59:24;16.60;99.90
51841;DHT22;37888;53.246;6.658;2022-07-06T17:01:52;16.60;99.90